createdAt,value
2023-07-04T00:04:52.802Z,29.21
2023-07-04T00:09:55.559Z,29.17
2023-07-04T00:14:58.360Z,29.14
2023-07-04T00:20:04.579Z,29.08
2023-07-04T00:25:08.383Z,29.05
2023-07-04T00:30:14.562Z,29.01
2023-07-04T00:35:18.740Z,28.95
2023-07-04T00:40:21.461Z,28.90
2023-07-04T00:45:28.401Z,28.89
2023-07-04T00:50:35.491Z,28.82
2023-07-04T00:55:41.953Z,28.76
2023-07-04T01:00:48.338Z,28.71
2023-07-04T01:06:03.491Z,28.70
2023-07-04T01:11:13.760Z,28.65
2023-07-04T01:16:19.418Z,28.63
2023-07-04T01:21:28.902Z,28.62
2023-07-04T01:26:38.037Z,28.59
2023-07-04T01:31:44.914Z,28.57
2023-07-04T01:36:48.476Z,28.55
2023-07-04T01:41:52.609Z,28.49
2023-07-04T01:46:55.358Z,28.45
2023-07-04T01:51:58.170Z,28.42
2023-07-04T01:57:02.349Z,28.39
2023-07-04T02:02:05.926Z,28.36
2023-07-04T02:07:08.849Z,28.32
2023-07-04T02:12:13.023Z,28.27
2023-07-04T02:17:16.731Z,28.22
2023-07-04T02:22:19.563Z,28.16
2023-07-04T02:27:23.817Z,28.13
2023-07-04T02:32:26.687Z,28.12
2023-07-04T02:37:29.561Z,28.08
2023-07-04T02:42:33.639Z,28.07
2023-07-04T02:47:36.718Z,28.04
2023-07-04T02:52:43.947Z,28.02
2023-07-04T02:57:49.796Z,28.01
2023-07-04T03:02:54.189Z,28.01
2023-07-04T03:07:58.753Z,28.00
2023-07-04T03:13:03.070Z,27.97
2023-07-04T03:18:11.286Z,27.95
2023-07-04T03:23:15.760Z,27.94
2023-07-04T03:28:20.628Z,27.92
2023-07-04T03:33:24.051Z,27.87
2023-07-04T03:38:27.473Z,27.85
2023-07-04T03:43:31.659Z,27.84
2023-07-04T03:48:34.839Z,27.80
2023-07-04T03:53:38.909Z,27.51
2023-07-04T03:58:43.387Z,26.96
2023-07-04T04:03:46.296Z,26.66
2023-07-04T04:08:49.286Z,26.35
2023-07-04T04:13:53.594Z,26.17
2023-07-04T04:18:56.635Z,26.03
2023-07-04T04:23:59.409Z,25.83
2023-07-04T04:29:04.436Z,25.63
2023-07-04T04:34:08.028Z,25.54
2023-07-04T04:39:10.857Z,25.37
2023-07-04T04:44:15.073Z,25.22
2023-07-04T04:49:19.297Z,25.39
2023-07-04T04:54:23.834Z,25.42
2023-07-04T04:59:28.201Z,25.48
2023-07-04T05:04:31.094Z,25.46
2023-07-04T05:09:34.410Z,25.26
2023-07-04T05:14:38.725Z,25.35
2023-07-04T05:19:41.966Z,25.26
2023-07-04T05:24:44.996Z,25.31
2023-07-04T05:29:49.996Z,25.24
2023-07-04T05:34:53.035Z,25.19
2023-07-04T05:39:55.904Z,25.16
2023-07-04T05:45:00.198Z,25.11
2023-07-04T05:50:03.190Z,25.01
2023-07-04T05:55:06.961Z,24.86
2023-07-04T06:00:13.184Z,24.70
2023-07-04T06:05:16.077Z,24.52
2023-07-04T06:10:19.043Z,24.54
2023-07-04T06:15:23.291Z,24.47
2023-07-04T06:20:27.423Z,24.47
2023-07-04T06:25:30.301Z,24.40
2023-07-04T06:30:36.235Z,24.44
2023-07-04T06:35:43.148Z,24.37
2023-07-04T06:40:56.781Z,24.28
2023-07-04T06:46:01.399Z,24.46
2023-07-04T06:51:06.473Z,24.62
2023-07-04T06:56:13.139Z,24.61
2023-07-04T07:01:18.213Z,24.36
2023-07-04T07:06:21.435Z,24.45
2023-07-04T07:11:25.888Z,24.43
2023-07-04T07:16:30.246Z,24.49
2023-07-04T07:21:33.177Z,24.34
2023-07-04T07:26:38.416Z,24.36
2023-07-04T07:31:43.086Z,24.39
2023-07-04T07:36:47.752Z,24.48
2023-07-04T07:41:50.873Z,24.41
2023-07-04T07:46:55.230Z,24.56
2023-07-04T07:52:00.882Z,24.48
2023-07-04T07:57:05.339Z,24.58
2023-07-04T08:02:14.501Z,24.56
2023-07-04T08:07:17.492Z,24.52
2023-07-04T08:12:20.423Z,24.46
2023-07-04T08:17:24.708Z,24.60
2023-07-04T08:22:29.884Z,24.58
2023-07-04T08:27:32.689Z,24.62
2023-07-04T08:32:36.981Z,24.49
2023-07-04T08:37:39.828Z,24.62
2023-07-04T08:42:43.236Z,24.57
2023-07-04T08:47:47.582Z,24.62
2023-07-04T08:52:57.560Z,24.71
2023-07-04T08:58:02.014Z,24.65
2023-07-04T09:03:28.320Z,24.83
2023-07-04T09:08:43.274Z,24.69
2023-07-04T09:13:49.908Z,24.72
2023-07-04T09:18:58.905Z,24.69
2023-07-04T09:24:03.912Z,24.81
2023-07-04T09:29:08.620Z,24.81
2023-07-04T09:34:18.132Z,24.94
2023-07-04T09:39:21.317Z,24.75
2023-07-04T09:44:29.125Z,24.79
2023-07-04T09:49:36.348Z,24.75
2023-07-04T09:54:41.300Z,24.75
2023-07-04T09:59:44.901Z,24.87
2023-07-04T10:04:51.245Z,25.01
2023-07-04T10:09:57.559Z,24.89
2023-07-04T10:15:02.265Z,24.83
2023-07-04T10:20:14.267Z,25.01
2023-07-04T10:25:20.388Z,25.03
2023-07-04T10:30:26.536Z,25.05
2023-07-04T10:35:33.938Z,25.44
2023-07-04T10:40:41.220Z,25.72
2023-07-04T10:46:00.213Z,25.66
2023-07-04T10:51:10.634Z,25.81
2023-07-04T10:56:21.662Z,25.83
2023-07-04T11:01:29.841Z,25.71
2023-07-04T11:06:40.153Z,25.87
2023-07-04T11:11:48.995Z,26.03
2023-07-04T11:16:55.591Z,26.21
2023-07-04T11:22:18.730Z,26.29
2023-07-04T11:27:25.322Z,26.34
2023-07-04T11:32:36.063Z,26.42
2023-07-04T11:37:46.200Z,26.50
2023-07-04T11:42:54.636Z,26.57
2023-07-04T11:48:02.265Z,26.64
2023-07-04T11:53:15.814Z,26.72
2023-07-04T11:58:20.688Z,26.79
2023-07-04T12:04:00.184Z,26.82
2023-07-04T12:09:05.042Z,26.84
2023-07-04T12:14:08.357Z,26.88
2023-07-04T12:19:17.194Z,26.92
2023-07-04T12:24:25.621Z,26.97
2023-07-04T12:39:47.324Z,27.08
2023-07-04T12:44:50.138Z,27.14
2023-07-04T12:49:55.956Z,27.21
2023-07-04T12:55:03.157Z,27.22
2023-07-04T13:00:13.131Z,27.30
2023-07-04T13:05:18.067Z,27.32
2023-07-04T13:10:25.795Z,27.41
2023-07-04T13:15:31.213Z,27.43
2023-07-04T13:20:37.760Z,27.50
2023-07-04T13:25:44.232Z,27.60
2023-07-04T13:35:53.993Z,27.63
2023-07-04T13:41:21.994Z,27.66
2023-07-04T13:46:25.552Z,27.72
2023-07-04T13:51:28.873Z,27.63
2023-07-04T13:56:33.339Z,27.81
2023-07-04T14:06:42.371Z,27.93
2023-07-04T14:11:46.807Z,27.96
2023-07-04T14:21:55.885Z,28.07
2023-07-04T14:27:00.359Z,28.10
2023-07-04T14:32:03.746Z,28.11
2023-07-04T14:37:07.499Z,28.21
2023-07-04T14:42:30.186Z,28.24
2023-07-04T14:47:33.963Z,28.20
2023-07-04T14:52:37.642Z,28.27
2023-07-04T14:57:44.552Z,28.26
2023-07-04T15:02:48.498Z,28.19
2023-07-04T15:07:51.452Z,28.09
2023-07-04T15:12:55.748Z,28.30
2023-07-04T15:18:01.063Z,28.33
2023-07-04T15:23:04.151Z,28.55
2023-07-04T15:28:08.523Z,28.43
2023-07-04T15:33:11.992Z,28.46
2023-07-04T15:38:20.478Z,28.39
2023-07-04T15:43:26.815Z,28.42
2023-07-04T15:48:30.031Z,28.39
2023-07-04T15:53:33.878Z,28.46
2023-07-04T15:58:38.706Z,28.63
2023-07-04T16:03:42.373Z,28.93
2023-07-04T16:08:45.496Z,29.05
2023-07-04T16:13:50.831Z,29.28
2023-07-04T16:18:53.934Z,29.42
2023-07-04T16:23:56.750Z,29.51
2023-07-04T16:29:01.045Z,29.69
2023-07-04T16:34:04.245Z,29.39
2023-07-04T16:39:07.544Z,29.77
2023-07-04T16:44:11.878Z,29.90
2023-07-04T16:49:14.933Z,29.98
2023-07-04T16:54:17.925Z,30.04
2023-07-04T16:59:22.317Z,30.06
2023-07-04T17:04:28.025Z,30.03
2023-07-04T17:09:31.072Z,30.09
2023-07-04T17:14:35.328Z,30.12
2023-07-04T17:19:38.278Z,30.14
2023-07-04T17:24:41.345Z,30.19
2023-07-04T17:29:45.849Z,30.20
2023-07-04T17:34:50.738Z,30.21
2023-07-04T17:39:55.010Z,30.23
2023-07-04T17:45:00.623Z,30.26
2023-07-04T17:50:03.814Z,30.24
2023-07-04T17:55:11.340Z,30.24
2023-07-04T18:00:16.521Z,30.22
2023-07-04T18:05:19.456Z,30.22
2023-07-04T18:10:26.173Z,30.22
2023-07-04T18:15:30.511Z,30.23
2023-07-04T18:20:33.539Z,30.22
2023-07-04T18:25:39.211Z,30.22
2023-07-04T18:30:43.540Z,30.24
2023-07-04T18:35:46.519Z,30.24
2023-07-04T18:40:52.174Z,30.25
2023-07-04T18:45:57.040Z,30.21
2023-07-04T18:51:09.108Z,30.19
2023-07-04T18:56:12.385Z,30.21
2023-07-04T19:01:19.108Z,30.25
2023-07-04T19:06:24.340Z,30.32
2023-07-04T19:11:30.474Z,30.33
2023-07-04T19:16:36.103Z,30.36
2023-07-04T19:21:40.149Z,30.38
2023-07-04T19:26:43.137Z,30.41
2023-07-04T19:31:51.583Z,30.39
2023-07-04T19:36:56.370Z,30.41
2023-07-04T19:41:59.398Z,30.39
2023-07-04T19:47:04.325Z,30.37
2023-07-04T19:52:13.866Z,30.38
2023-07-04T19:57:16.959Z,30.37
2023-07-04T20:02:22.494Z,30.36
2023-07-04T20:07:25.663Z,30.37
2023-07-04T20:12:28.674Z,30.39
2023-07-04T20:17:33.473Z,30.35
2023-07-04T20:22:38.392Z,30.36
2023-07-04T20:27:41.202Z,30.36
2023-07-04T20:32:52.348Z,30.41
2023-07-04T20:37:57.594Z,30.38
2023-07-04T20:43:01.304Z,30.39
2023-07-04T20:48:06.617Z,30.38
2023-07-04T20:53:09.634Z,30.41
2023-07-04T20:58:19.627Z,30.42
2023-07-04T21:03:25.310Z,30.36
2023-07-04T21:08:29.571Z,30.39
2023-07-04T21:13:33.141Z,30.32
2023-07-04T21:18:38.386Z,30.39
2023-07-04T21:23:41.906Z,30.30
2023-07-04T21:28:46.290Z,30.28
2023-07-04T21:33:50.923Z,30.38
2023-07-04T21:38:53.817Z,30.37
2023-07-04T21:43:56.869Z,30.38
2023-07-04T21:49:01.019Z,30.33
2023-07-04T21:54:04.241Z,30.43
2023-07-04T21:59:07.575Z,30.39
2023-07-04T22:04:12.333Z,30.35
2023-07-04T22:09:17.198Z,30.39
2023-07-04T22:14:27.525Z,30.36
2023-07-04T22:19:41.228Z,30.40
2023-07-04T22:24:44.015Z,30.36
2023-07-04T22:29:47.035Z,30.35
2023-07-04T22:34:51.377Z,30.29
2023-07-04T22:39:54.178Z,30.25
2023-07-04T22:44:57.182Z,30.19
2023-07-04T22:50:01.737Z,30.17
2023-07-04T22:55:05.296Z,30.10
2023-07-04T23:00:09.687Z,30.03
2023-07-04T23:05:13.938Z,29.98
2023-07-04T23:10:16.851Z,29.92
2023-07-04T23:15:20.168Z,29.82
2023-07-04T23:20:24.607Z,29.77
2023-07-04T23:25:29.111Z,29.72
2023-07-04T23:30:37.229Z,29.70
2023-07-04T23:35:41.386Z,29.64
2023-07-04T23:40:44.157Z,29.62
2023-07-04T23:45:47.342Z,29.59
2023-07-04T23:50:51.752Z,29.52
2023-07-04T23:55:54.765Z,29.47
